createdAt,value
2018-07-14T00:01:57.669Z,16.90
2018-07-14T00:04:25.759Z,16.85
2018-07-14T00:06:54.567Z,16.82
2018-07-14T00:09:22.887Z,16.78
2018-07-14T00:11:51.659Z,16.74
2018-07-14T00:14:20.095Z,16.69
2018-07-14T00:16:48.683Z,16.66
2018-07-14T00:19:16.775Z,16.62
2018-07-14T00:21:45.495Z,16.58
2018-07-14T00:24:13.597Z,16.52
2018-07-14T00:26:42.250Z,16.47
2018-07-14T00:29:10.568Z,16.42
2018-07-14T00:31:39.260Z,16.37
2018-07-14T00:34:07.768Z,16.30
2018-07-14T00:36:36.489Z,16.25
2018-07-14T00:39:05.607Z,16.22
2018-07-14T00:41:33.952Z,16.22
2018-07-14T00:44:02.417Z,16.23
2018-07-14T00:46:30.741Z,16.26
2018-07-14T00:48:59.957Z,16.25
2018-07-14T00:51:28.147Z,16.23
2018-07-14T00:53:56.880Z,16.21
2018-07-14T00:56:25.236Z,16.18
2018-07-14T00:58:53.960Z,16.20
2018-07-14T01:01:22.092Z,16.21
2018-07-14T01:03:50.820Z,16.16
2018-07-14T01:06:19.505Z,16.17
2018-07-14T01:08:48.364Z,16.09
2018-07-14T01:11:16.540Z,16.00
2018-07-14T01:13:45.280Z,15.93
2018-07-14T01:16:13.895Z,15.88
2018-07-14T01:18:42.199Z,15.82
2018-07-14T01:21:10.596Z,15.76
2018-07-14T01:23:38.939Z,15.72
2018-07-14T01:26:07.897Z,15.67
2018-07-14T01:28:36.324Z,15.64
2018-07-14T01:31:04.984Z,15.60
2018-07-14T01:33:33.087Z,15.56
2018-07-14T01:36:01.760Z,15.51
2018-07-14T01:38:29.849Z,15.46
2018-07-14T01:40:58.235Z,15.44
2018-07-14T01:43:26.632Z,15.40
2018-07-14T01:45:55.181Z,15.37
2018-07-14T01:48:23.610Z,15.36
2018-07-14T01:50:51.833Z,15.33
2018-07-14T01:53:20.148Z,15.32
2018-07-14T01:55:48.887Z,15.40
2018-07-14T01:58:17.214Z,15.49
2018-07-14T02:00:45.947Z,15.57
2018-07-14T02:03:14.056Z,15.65
2018-07-14T02:05:42.492Z,15.74
2018-07-14T02:08:10.739Z,15.75
2018-07-14T02:10:38.864Z,15.68
2018-07-14T02:13:07.568Z,15.70
2018-07-14T02:15:35.741Z,15.70
2018-07-14T02:18:03.833Z,15.73
2018-07-14T02:20:31.949Z,15.72
2018-07-14T02:23:00.379Z,15.67
2018-07-14T02:25:29.149Z,15.62
2018-07-14T02:27:57.243Z,15.60
2018-07-14T02:30:25.992Z,15.56
2018-07-14T02:32:54.112Z,15.52
2018-07-14T02:35:23.004Z,15.50
2018-07-14T02:37:51.979Z,15.46
2018-07-14T02:40:20.071Z,15.41
2018-07-14T02:42:48.532Z,15.36
2018-07-14T02:45:16.788Z,15.30
2018-07-14T02:47:45.029Z,15.19
2018-07-14T02:50:13.833Z,15.13
2018-07-14T02:52:42.116Z,15.07
2018-07-14T02:55:10.196Z,15.04
2018-07-14T02:57:38.637Z,15.07
2018-07-14T03:00:07.448Z,15.12
2018-07-14T03:02:35.836Z,15.13
2018-07-14T03:05:04.267Z,15.11
2018-07-14T03:07:32.451Z,15.10
2018-07-14T03:10:00.784Z,15.08
2018-07-14T03:12:29.468Z,15.02
2018-07-14T03:14:58.193Z,14.94
2018-07-14T03:17:26.853Z,14.87
2018-07-14T03:19:55.804Z,14.81
2018-07-14T03:22:23.973Z,14.78
2018-07-14T03:24:53.060Z,14.79
2018-07-14T03:27:21.181Z,14.77
2018-07-14T03:29:49.295Z,14.80
2018-07-14T03:32:17.712Z,14.86
2018-07-14T03:34:46.124Z,14.91
2018-07-14T03:37:14.232Z,14.93
2018-07-14T03:39:42.692Z,14.92
2018-07-14T03:42:10.944Z,14.86
2018-07-14T03:44:39.031Z,14.78
2018-07-14T03:47:07.144Z,14.69
2018-07-14T03:49:35.244Z,14.68
2018-07-14T03:52:03.701Z,14.73
2018-07-14T03:54:32.305Z,14.82
2018-07-14T03:57:00.471Z,14.89
2018-07-14T03:59:29.532Z,14.97
2018-07-14T04:01:58.644Z,15.01
2018-07-14T04:04:27.063Z,15.00
2018-07-14T04:06:55.326Z,14.95
2018-07-14T04:09:23.937Z,14.90
2018-07-14T04:11:52.597Z,14.89
2018-07-14T04:14:21.174Z,14.97
2018-07-14T04:16:49.567Z,15.07
2018-07-14T04:19:18.316Z,15.14
2018-07-14T04:21:46.744Z,15.20
2018-07-14T04:24:15.400Z,15.28
2018-07-14T04:26:43.499Z,15.40
2018-07-14T04:29:12.339Z,15.48
2018-07-14T04:31:40.424Z,15.52
2018-07-14T04:34:08.863Z,15.57
2018-07-14T04:36:37.148Z,15.65
2018-07-14T04:39:06.087Z,15.79
2018-07-14T04:41:34.948Z,15.91
2018-07-14T04:44:03.399Z,16.01
2018-07-14T04:46:31.500Z,16.08
2018-07-14T04:48:59.621Z,16.11
2018-07-14T04:51:28.012Z,16.17
2018-07-14T04:53:56.400Z,16.27
2018-07-14T04:56:24.516Z,16.37
2018-07-14T04:58:53.120Z,16.36
2018-07-14T05:01:21.238Z,16.34
2018-07-14T05:03:49.548Z,16.33
2018-07-14T05:06:18.601Z,16.34
2018-07-14T05:08:47.196Z,16.36
2018-07-14T05:11:15.526Z,16.50
2018-07-14T05:13:44.903Z,16.60
2018-07-14T05:16:13.465Z,16.75
2018-07-14T05:18:43.055Z,16.84
2018-07-14T05:21:11.156Z,16.91
2018-07-14T05:23:39.623Z,17.02
2018-07-14T05:26:08.407Z,17.13
2018-07-14T05:28:36.880Z,17.23
2018-07-14T05:31:05.168Z,17.37
2018-07-14T05:33:33.328Z,17.50
2018-07-14T05:36:01.420Z,17.60
2018-07-14T05:38:29.865Z,17.70
2018-07-14T05:40:58.283Z,17.86
2018-07-14T05:43:27.345Z,18.01
2018-07-14T05:45:55.945Z,18.09
2018-07-14T05:48:24.491Z,18.15
2018-07-14T05:50:53.103Z,18.21
2018-07-14T05:53:21.213Z,18.30
2018-07-14T05:55:49.623Z,18.38
2018-07-14T05:58:17.739Z,18.47
2018-07-14T06:00:46.725Z,18.61
2018-07-14T06:03:15.413Z,18.75
2018-07-14T06:05:44.136Z,18.84
2018-07-14T06:08:12.560Z,18.91
2018-07-14T06:10:40.656Z,18.88
2018-07-14T06:13:08.757Z,18.90
2018-07-14T06:15:37.182Z,18.99
2018-07-14T06:18:05.378Z,19.08
2018-07-14T06:20:33.627Z,19.16
2018-07-14T06:23:01.940Z,19.23
2018-07-14T06:25:30.696Z,19.35
2018-07-14T06:27:58.800Z,19.47
2018-07-14T06:30:27.772Z,19.57
2018-07-14T06:32:56.229Z,19.65
2018-07-14T06:35:24.843Z,19.76
2018-07-14T06:37:52.964Z,19.85
2018-07-14T06:40:21.384Z,19.81
2018-07-14T06:42:50.418Z,19.81
2018-07-14T06:45:18.986Z,19.85
2018-07-14T06:47:47.632Z,19.87
2018-07-14T06:50:16.673Z,19.91
2018-07-14T06:52:44.762Z,19.90
2018-07-14T06:55:13.603Z,19.84
2018-07-14T06:57:43.127Z,19.85
2018-07-14T07:00:11.523Z,19.84
2018-07-14T07:02:39.621Z,19.80
2018-07-14T07:05:07.772Z,19.73
2018-07-14T07:07:36.207Z,19.66
2018-07-14T07:10:04.351Z,19.67
2018-07-14T07:12:32.840Z,19.75
2018-07-14T07:15:01.772Z,19.78
2018-07-14T07:17:30.208Z,19.94
2018-07-14T07:19:59.143Z,20.19
2018-07-14T07:22:27.803Z,20.26
2018-07-14T07:24:55.904Z,20.40
2018-07-14T07:27:24.004Z,20.63
2018-07-14T07:29:52.740Z,20.91
2018-07-14T07:32:21.160Z,21.15
2018-07-14T07:34:50.443Z,21.38
2018-07-14T07:37:18.888Z,21.56
2018-07-14T07:39:46.992Z,21.55
2018-07-14T07:42:15.440Z,21.68
2018-07-14T07:44:43.925Z,21.82
2018-07-14T07:47:12.021Z,21.92
2018-07-14T07:49:40.440Z,22.01
2018-07-14T07:52:08.692Z,21.89
2018-07-14T07:54:36.784Z,21.56
2018-07-14T07:57:05.526Z,21.28
2018-07-14T07:59:34.147Z,21.21
2018-07-14T08:02:02.476Z,21.27
2018-07-14T08:04:30.579Z,21.32
2018-07-14T08:06:59.168Z,21.41
2018-07-14T08:09:27.536Z,21.53
2018-07-14T08:11:55.988Z,21.72
2018-07-14T08:14:24.452Z,21.87
2018-07-14T08:16:53.557Z,22.09
2018-07-14T08:19:21.900Z,22.27
2018-07-14T08:21:50.000Z,22.37
2018-07-14T08:24:18.435Z,22.20
2018-07-14T08:26:46.788Z,22.18
2018-07-14T08:29:14.860Z,22.29
2018-07-14T08:31:43.192Z,22.42
2018-07-14T08:34:11.652Z,22.53
2018-07-14T08:36:48.353Z,22.65
2018-07-14T08:39:16.853Z,22.72
2018-07-14T08:41:48.480Z,22.92
2018-07-14T08:44:18.048Z,23.08
2018-07-14T08:46:46.583Z,22.98
2018-07-14T08:49:15.000Z,22.81
2018-07-14T08:51:43.465Z,22.78
2018-07-14T08:54:11.996Z,22.74
2018-07-14T08:56:40.244Z,22.78
2018-07-14T08:59:08.623Z,22.87
2018-07-14T09:01:36.715Z,23.06
2018-07-14T09:04:05.591Z,23.15
2018-07-14T09:06:34.219Z,23.23
2018-07-14T09:09:02.648Z,23.42
2018-07-14T09:11:30.732Z,23.50
2018-07-14T09:13:58.936Z,23.56
2018-07-14T09:16:27.902Z,23.48
2018-07-14T09:18:56.471Z,23.50
2018-07-14T09:21:25.340Z,23.81
2018-07-14T09:23:54.046Z,24.08
2018-07-14T09:26:22.900Z,24.33
2018-07-14T09:28:51.011Z,24.54
2018-07-14T09:31:19.113Z,24.69
2018-07-14T09:33:49.271Z,24.84
2018-07-14T09:36:18.346Z,25.12
2018-07-14T09:38:46.992Z,25.37
2018-07-14T09:41:15.337Z,25.68
2018-07-14T09:43:43.759Z,26.06
2018-07-14T09:46:12.195Z,26.34
2018-07-14T09:48:41.136Z,26.43
2018-07-14T09:51:09.543Z,26.59
2018-07-14T09:53:38.120Z,26.53
2018-07-14T09:56:06.943Z,26.45
2018-07-14T09:58:35.319Z,26.34
2018-07-14T10:01:09.226Z,26.00
2018-07-14T10:03:38.926Z,25.70
2018-07-14T10:06:07.137Z,25.57
2018-07-14T10:08:35.648Z,25.50
2018-07-14T10:11:04.302Z,25.44
2018-07-14T10:13:32.715Z,25.39
2018-07-14T10:16:01.428Z,25.42
2018-07-14T10:18:30.160Z,25.45
2018-07-14T10:20:58.584Z,25.51
2018-07-14T10:23:27.214Z,25.51
2018-07-14T10:25:55.416Z,25.20
2018-07-14T10:28:23.884Z,24.98
2018-07-14T10:30:52.600Z,24.87
2018-07-14T10:33:20.985Z,24.82
2018-07-14T10:35:49.540Z,24.92
2018-07-14T10:38:17.915Z,25.12
2018-07-14T10:40:46.788Z,25.44
2018-07-14T10:43:14.884Z,25.88
2018-07-14T10:45:43.620Z,26.40
2018-07-14T10:48:12.289Z,26.51
2018-07-14T10:50:40.428Z,26.56
2018-07-14T10:53:08.527Z,26.58
2018-07-14T10:55:37.274Z,26.73
2018-07-14T10:58:05.703Z,27.09
2018-07-14T11:00:33.948Z,27.39
2018-07-14T11:03:02.045Z,27.62
2018-07-14T11:05:30.492Z,27.63
2018-07-14T11:07:58.749Z,27.31
2018-07-14T11:10:27.299Z,27.17
2018-07-14T11:12:55.663Z,27.37
2018-07-14T11:15:24.325Z,27.86
2018-07-14T11:17:53.102Z,28.22
2018-07-14T11:20:21.357Z,28.53
2018-07-14T11:22:49.964Z,28.62
2018-07-14T11:25:18.320Z,28.47
2018-07-14T11:27:46.702Z,28.26
2018-07-14T11:30:15.766Z,27.99
2018-07-14T11:32:44.627Z,27.81
2018-07-14T11:35:13.056Z,27.56
2018-07-14T11:37:41.514Z,27.39
2018-07-14T11:40:10.355Z,27.47
2018-07-14T11:42:38.800Z,27.67
2018-07-14T11:45:07.552Z,27.80
2018-07-14T11:47:36.056Z,27.81
2018-07-14T11:50:04.345Z,27.78
2018-07-14T11:52:32.631Z,27.82
2018-07-14T11:55:01.632Z,27.88
2018-07-14T11:57:29.732Z,27.99
2018-07-14T11:59:58.973Z,27.88
2018-07-14T12:02:27.164Z,28.03
2018-07-14T12:04:55.352Z,28.37
2018-07-14T12:07:23.941Z,28.63
2018-07-14T12:09:52.799Z,28.79
2018-07-14T12:12:21.766Z,29.02
2018-07-14T12:14:50.466Z,29.27
2018-07-14T12:17:18.895Z,29.63
2018-07-14T12:19:47.448Z,29.76
2018-07-14T12:22:15.955Z,29.66
2018-07-14T12:24:44.508Z,29.39
2018-07-14T12:27:12.680Z,29.01
2018-07-14T12:29:40.812Z,28.79
2018-07-14T12:32:09.730Z,28.75
2018-07-14T12:34:38.471Z,28.93
2018-07-14T12:37:06.849Z,29.34
2018-07-14T12:39:35.160Z,29.58
2018-07-14T12:42:03.608Z,29.49
2018-07-14T12:44:32.192Z,29.27
2018-07-14T12:47:00.291Z,29.13
2018-07-14T12:49:28.379Z,29.19
2018-07-14T12:51:56.996Z,29.11
2018-07-14T12:54:26.096Z,28.84
2018-07-14T12:56:55.062Z,28.46
2018-07-14T12:59:23.367Z,28.47
2018-07-14T13:01:51.901Z,28.34
2018-07-14T13:04:20.309Z,28.13
2018-07-14T13:06:49.492Z,28.04
2018-07-14T13:09:19.379Z,28.08
2018-07-14T13:11:47.664Z,28.30
2018-07-14T13:14:16.600Z,28.68
2018-07-14T13:16:45.208Z,28.93
2018-07-14T13:19:13.907Z,29.14
2018-07-14T13:21:44.016Z,29.28
2018-07-14T13:24:12.535Z,29.39
2018-07-14T13:26:40.957Z,29.10
2018-07-14T13:29:09.997Z,29.02
2018-07-14T13:31:38.379Z,29.21
2018-07-14T13:34:06.778Z,29.27
2018-07-14T13:36:35.007Z,29.14
2018-07-14T13:39:03.614Z,28.88
2018-07-14T13:41:32.259Z,28.92
2018-07-14T13:44:00.564Z,29.11
2018-07-14T13:46:28.998Z,29.29
2018-07-14T13:48:57.745Z,29.56
2018-07-14T13:51:26.396Z,29.88
2018-07-14T13:53:55.148Z,30.12
2018-07-14T13:56:23.716Z,30.27
2018-07-14T13:58:52.850Z,30.23
2018-07-14T14:01:21.096Z,30.30
2018-07-14T14:03:49.880Z,30.37
2018-07-14T14:06:19.124Z,30.43
2018-07-14T14:08:47.848Z,30.53
2018-07-14T14:11:15.981Z,30.70
2018-07-14T14:13:45.278Z,30.79
2018-07-14T14:16:14.524Z,30.91
2018-07-14T14:18:44.406Z,31.02
2018-07-14T14:21:12.727Z,30.94
2018-07-14T14:23:41.240Z,30.93
2018-07-14T14:26:10.070Z,30.82
2018-07-14T14:28:38.935Z,30.66
2018-07-14T14:31:07.424Z,30.36
2018-07-14T14:33:36.102Z,30.27
2018-07-14T14:36:04.815Z,30.38
2018-07-14T14:38:33.267Z,30.56
2018-07-14T14:41:01.613Z,30.62
2018-07-14T14:43:30.308Z,30.70
2018-07-14T14:45:58.734Z,30.76
2018-07-14T14:48:27.420Z,30.78
2018-07-14T14:50:55.816Z,30.79
2018-07-14T14:53:24.325Z,30.92
2018-07-14T14:55:52.720Z,31.04
2018-07-14T14:58:21.408Z,31.04
2018-07-14T15:00:49.905Z,30.98
2018-07-14T15:03:18.337Z,30.70
2018-07-14T15:05:46.979Z,30.50
2018-07-14T15:08:15.292Z,30.10
2018-07-14T15:10:44.157Z,29.75
2018-07-14T15:13:13.432Z,29.69
2018-07-14T15:15:41.775Z,29.71
2018-07-14T15:18:10.415Z,29.58
2018-07-14T15:20:39.124Z,29.52
2018-07-14T15:23:07.596Z,29.47
2018-07-14T15:25:36.312Z,29.47
2018-07-14T15:28:04.737Z,29.53
2018-07-14T15:30:33.037Z,29.63
2018-07-14T15:33:01.823Z,29.66
2018-07-14T15:35:30.263Z,29.78
2018-07-14T15:37:59.181Z,29.73
2018-07-14T15:40:27.291Z,29.72
2018-07-14T15:42:56.185Z,29.73
2018-07-14T15:45:24.287Z,29.77
2018-07-14T15:47:52.379Z,29.73
2018-07-14T15:50:20.794Z,29.48
2018-07-14T15:52:49.068Z,29.11
2018-07-14T15:55:17.156Z,28.84
2018-07-14T15:57:45.592Z,28.38
2018-07-14T16:00:14.270Z,27.94
2018-07-14T16:02:44.294Z,27.95
2018-07-14T16:05:12.896Z,28.09
2018-07-14T16:07:41.335Z,28.09
2018-07-14T16:10:09.436Z,28.10
2018-07-14T16:12:38.164Z,28.12
2018-07-14T16:15:06.571Z,28.15
2018-07-14T16:17:35.236Z,28.16
2018-07-14T16:20:03.663Z,28.21
2018-07-14T16:22:32.269Z,28.24
2018-07-14T16:25:00.899Z,28.09
2018-07-14T16:27:29.472Z,28.08
2018-07-14T16:29:58.188Z,28.18
2018-07-14T16:32:26.847Z,28.25
2018-07-14T16:34:55.555Z,28.24
2018-07-14T16:37:24.443Z,28.18
2018-07-14T16:39:53.203Z,28.09
2018-07-14T16:42:21.728Z,28.02
2018-07-14T16:44:50.504Z,28.04
2018-07-14T16:47:19.068Z,28.03
2018-07-14T16:49:47.333Z,27.94
2018-07-14T16:52:16.145Z,27.78
2018-07-14T16:54:46.269Z,27.68
2018-07-14T16:57:14.361Z,27.64
2018-07-14T16:59:42.916Z,27.62
2018-07-14T17:02:11.489Z,27.52
2018-07-14T17:04:39.921Z,27.41
2018-07-14T17:07:08.052Z,27.37
2018-07-14T17:09:36.160Z,27.26
2018-07-14T17:12:04.590Z,27.15
2018-07-14T17:14:33.120Z,27.02
2018-07-14T17:17:01.208Z,26.83
2018-07-14T17:19:29.652Z,26.65
2018-07-14T17:21:58.033Z,26.53
2018-07-14T17:24:26.323Z,26.42
2018-07-14T17:26:55.151Z,26.34
2018-07-14T17:29:23.724Z,26.27
2018-07-14T17:31:52.284Z,26.25
2018-07-14T17:34:20.531Z,26.20
2018-07-14T17:36:48.946Z,26.23
2018-07-14T17:39:17.597Z,26.21
2018-07-14T17:41:45.711Z,26.15
2018-07-14T17:44:14.076Z,26.09
2018-07-14T17:46:42.800Z,26.00
2018-07-14T17:49:11.523Z,25.90
2018-07-14T17:51:39.751Z,25.84
2018-07-14T17:54:08.392Z,25.79
2018-07-14T17:56:36.668Z,25.75
2018-07-14T17:59:05.284Z,25.70
2018-07-14T18:01:34.204Z,25.62
2018-07-14T18:04:03.080Z,25.58
2018-07-14T18:06:31.185Z,25.50
2018-07-14T18:08:59.571Z,25.44
2018-07-14T18:11:28.053Z,25.31
2018-07-14T18:13:56.455Z,25.21
2018-07-14T18:16:25.111Z,25.11
2018-07-14T18:18:53.648Z,25.02
2018-07-14T18:21:22.034Z,24.95
2018-07-14T18:23:50.387Z,24.89
2018-07-14T18:26:18.927Z,24.84
2018-07-14T18:28:47.408Z,24.77
2018-07-14T18:31:15.868Z,24.69
2018-07-14T18:33:44.763Z,24.62
2018-07-14T18:36:13.534Z,24.54
2018-07-14T18:38:42.436Z,24.41
2018-07-14T18:41:10.878Z,24.31
2018-07-14T18:43:39.594Z,24.19
2018-07-14T18:46:07.951Z,24.13
2018-07-14T18:48:36.708Z,24.04
2018-07-14T18:51:04.828Z,23.97
2018-07-14T18:53:33.614Z,23.92
2018-07-14T18:56:02.322Z,23.90
2018-07-14T18:58:30.947Z,23.85
2018-07-14T19:00:59.759Z,23.79
2018-07-14T19:03:27.860Z,23.70
2018-07-14T19:05:56.804Z,23.59
2018-07-14T19:08:25.780Z,23.54
2018-07-14T19:10:54.216Z,23.50
2018-07-14T19:13:22.665Z,23.43
2018-07-14T19:15:51.105Z,23.36
2018-07-14T19:18:19.284Z,23.31
2018-07-14T19:20:47.676Z,23.25
2018-07-14T19:23:16.365Z,23.18
2018-07-14T19:25:45.077Z,23.10
2018-07-14T19:28:13.347Z,23.02
2018-07-14T19:30:42.189Z,22.94
2018-07-14T19:33:10.487Z,22.89
2018-07-14T19:35:38.588Z,22.81
2018-07-14T19:38:06.703Z,22.73
2018-07-14T19:40:35.127Z,22.68
2018-07-14T19:43:03.424Z,22.63
2018-07-14T19:45:31.777Z,22.59
2018-07-14T19:47:59.864Z,22.54
2018-07-14T19:50:28.252Z,22.49
2018-07-14T19:52:57.191Z,22.43
2018-07-14T19:55:25.780Z,22.36
2018-07-14T19:57:53.917Z,22.31
2018-07-14T20:00:22.631Z,22.26
2018-07-14T20:02:51.089Z,22.20
2018-07-14T20:05:19.647Z,22.12
2018-07-14T20:07:48.676Z,22.03
2018-07-14T20:10:16.757Z,21.94
2018-07-14T20:12:44.840Z,21.85
2018-07-14T20:15:12.952Z,21.77
2018-07-14T20:17:41.352Z,21.70
2018-07-14T20:20:10.223Z,21.63
2018-07-14T20:22:39.099Z,21.55
2018-07-14T20:25:07.703Z,21.48
2018-07-14T20:27:36.947Z,21.41
2018-07-14T20:30:05.563Z,21.50
2018-07-14T20:32:34.227Z,21.62
2018-07-14T20:35:02.807Z,21.79
2018-07-14T20:37:31.885Z,21.89
2018-07-14T20:40:01.144Z,21.96
2018-07-14T20:42:29.916Z,22.02
2018-07-14T20:44:58.332Z,22.08
2018-07-14T20:47:26.924Z,22.13
2018-07-14T20:49:55.020Z,22.18
2018-07-14T20:52:23.453Z,22.21
2018-07-14T20:54:52.064Z,22.18
2018-07-14T20:57:20.903Z,22.16
2018-07-14T20:59:48.997Z,22.18
2018-07-14T21:02:17.879Z,22.17
2018-07-14T21:04:46.500Z,22.10
2018-07-14T21:07:15.189Z,22.01
2018-07-14T21:09:45.338Z,21.91
2018-07-14T21:12:13.887Z,21.81
2018-07-14T21:14:42.469Z,21.79
2018-07-14T21:17:10.588Z,21.80
2018-07-14T21:19:38.672Z,21.81
2018-07-14T21:22:07.316Z,21.84
2018-07-14T21:24:36.029Z,21.83
2018-07-14T21:27:04.825Z,21.81
2018-07-14T21:29:33.259Z,21.75
2018-07-14T21:32:02.090Z,21.68
2018-07-14T21:34:30.800Z,21.66
2018-07-14T21:36:59.469Z,21.67
2018-07-14T21:39:27.604Z,21.64
2018-07-14T21:41:56.497Z,21.59
2018-07-14T21:44:24.668Z,21.54
2018-07-14T21:46:53.491Z,21.51
2018-07-14T21:49:21.611Z,21.46
2018-07-14T21:51:50.363Z,21.44
2018-07-14T21:54:18.642Z,21.39
2018-07-14T21:56:46.912Z,21.36
2018-07-14T21:59:15.373Z,21.34
2018-07-14T22:01:49.992Z,21.35
2018-07-14T22:04:19.073Z,21.33
2018-07-14T22:06:47.489Z,21.32
2018-07-14T22:09:15.604Z,21.32
2018-07-14T22:11:45.516Z,21.32
2018-07-14T22:14:14.152Z,21.33
2018-07-14T22:16:42.859Z,21.30
2018-07-14T22:19:11.300Z,21.26
2018-07-14T22:21:40.024Z,21.22
2018-07-14T22:24:08.421Z,21.16
2018-07-14T22:26:36.731Z,21.13
2018-07-14T22:29:05.077Z,21.12
2018-07-14T22:31:33.669Z,21.01
2018-07-14T22:34:02.062Z,20.91
2018-07-14T22:36:30.348Z,20.87
2018-07-14T22:38:59.075Z,20.88
2018-07-14T22:41:27.173Z,20.90
2018-07-14T22:43:55.264Z,20.91
2018-07-14T22:46:23.647Z,20.86
2018-07-14T22:48:52.372Z,20.60
2018-07-14T22:51:20.976Z,20.27
2018-07-14T22:53:49.243Z,19.92
2018-07-14T22:56:17.672Z,19.64
2018-07-14T22:58:46.684Z,19.39
2018-07-14T23:01:15.124Z,19.17
2018-07-14T23:03:43.955Z,18.97
2018-07-14T23:06:12.354Z,18.81
2018-07-14T23:08:41.197Z,18.65
2018-07-14T23:11:09.988Z,18.52
2018-07-14T23:13:38.332Z,18.41
2018-07-14T23:16:06.769Z,18.32
2018-07-14T23:18:34.918Z,18.21
2018-07-14T23:21:04.014Z,18.14
2018-07-14T23:23:34.190Z,18.07
2018-07-14T23:26:02.788Z,17.99
2018-07-14T23:28:31.248Z,17.89
2018-07-14T23:30:59.697Z,17.79
2018-07-14T23:33:28.002Z,17.72
2018-07-14T23:35:56.547Z,17.63
2018-07-14T23:38:25.388Z,17.58
2018-07-14T23:40:53.869Z,17.53
2018-07-14T23:43:21.975Z,17.49
2018-07-14T23:45:50.536Z,17.43
2018-07-14T23:48:18.916Z,17.40
2018-07-14T23:50:47.248Z,17.36
2018-07-14T23:53:15.685Z,17.30
2018-07-14T23:55:45.168Z,17.25
2018-07-14T23:58:13.763Z,17.18
